createdAt,value
2018-05-27T00:01:23.481Z,19.40
2018-05-27T00:03:51.247Z,19.40
2018-05-27T00:06:19.010Z,19.40
2018-05-27T00:08:46.672Z,19.40
2018-05-27T00:11:14.439Z,19.40
2018-05-27T00:13:42.206Z,19.40
2018-05-27T00:16:09.864Z,19.40
2018-05-27T00:18:37.556Z,19.40
2018-05-27T00:21:05.404Z,19.30
2018-05-27T00:23:33.098Z,19.20
2018-05-27T00:26:01.644Z,19.20
2018-05-27T00:28:29.307Z,19.20
2018-05-27T00:30:57.072Z,19.20
2018-05-27T00:33:24.737Z,19.10
2018-05-27T00:35:52.497Z,19.00
2018-05-27T00:38:20.264Z,19.00
2018-05-27T00:40:47.885Z,18.90
2018-05-27T00:43:15.557Z,18.90
2018-05-27T00:45:43.176Z,18.80
2018-05-27T00:48:10.808Z,18.80
2018-05-27T00:50:38.571Z,18.70
2018-05-27T00:53:06.226Z,18.90
2018-05-27T00:55:33.998Z,18.90
2018-05-27T00:58:01.642Z,18.90
2018-05-27T01:00:29.322Z,18.80
2018-05-27T01:02:56.989Z,18.90
2018-05-27T01:05:24.621Z,18.90
2018-05-27T01:07:52.415Z,18.70
2018-05-27T01:10:20.097Z,18.70
2018-05-27T01:12:47.840Z,18.70
2018-05-27T01:15:15.533Z,18.80
2018-05-27T01:17:43.193Z,18.80
2018-05-27T01:20:11.613Z,18.80
2018-05-27T01:22:39.245Z,18.80
2018-05-27T01:25:06.880Z,18.80
2018-05-27T01:27:34.635Z,18.70
2018-05-27T01:30:02.430Z,18.70
2018-05-27T01:32:30.055Z,18.70
2018-05-27T01:34:57.827Z,18.90
2018-05-27T01:37:25.694Z,18.90
2018-05-27T01:39:53.458Z,18.70
2018-05-27T01:42:21.223Z,18.50
2018-05-27T01:44:48.890Z,18.40
2018-05-27T01:47:16.517Z,18.30
2018-05-27T01:49:44.242Z,18.30
2018-05-27T01:52:12.077Z,18.30
2018-05-27T01:54:39.711Z,18.30
2018-05-27T01:57:07.373Z,18.30
2018-05-27T01:59:35.171Z,18.30
2018-05-27T02:02:02.934Z,18.20
2018-05-27T02:04:30.695Z,18.20
2018-05-27T02:06:58.366Z,18.20
2018-05-27T02:09:26.121Z,18.30
2018-05-27T02:11:53.782Z,18.30
2018-05-27T02:14:21.551Z,18.20
2018-05-27T02:16:49.318Z,18.20
2018-05-27T02:19:16.979Z,18.10
2018-05-27T02:21:44.605Z,18.00
2018-05-27T02:24:12.317Z,18.00
2018-05-27T02:26:40.072Z,17.90
2018-05-27T02:29:07.710Z,17.90
2018-05-27T02:31:35.408Z,17.80
2018-05-27T02:34:03.034Z,17.90
2018-05-27T02:36:30.645Z,17.90
2018-05-27T02:38:58.483Z,17.90
2018-05-27T02:41:26.110Z,17.80
2018-05-27T02:43:53.807Z,17.70
2018-05-27T02:46:21.485Z,17.80
2018-05-27T02:48:49.161Z,17.80
2018-05-27T02:51:16.899Z,17.80
2018-05-27T02:53:44.547Z,17.70
2018-05-27T02:56:12.323Z,17.70
2018-05-27T02:58:40.019Z,17.60
2018-05-27T03:01:07.853Z,17.60
2018-05-27T03:03:35.721Z,17.50
2018-05-27T03:06:03.485Z,17.60
2018-05-27T03:08:31.187Z,17.60
2018-05-27T03:10:58.843Z,17.70
2018-05-27T03:13:27.393Z,17.60
2018-05-27T03:15:55.049Z,17.60
2018-05-27T03:18:22.761Z,17.50
2018-05-27T03:20:50.521Z,17.50
2018-05-27T03:23:19.068Z,17.50
2018-05-27T03:25:46.933Z,17.50
2018-05-27T03:28:14.698Z,17.60
2018-05-27T03:30:42.567Z,17.60
2018-05-27T03:33:10.330Z,17.70
2018-05-27T03:35:37.956Z,17.70
2018-05-27T03:38:05.655Z,17.70
2018-05-27T03:40:33.351Z,17.80
2018-05-27T03:43:01.004Z,17.70
2018-05-27T03:45:28.632Z,17.60
2018-05-27T03:47:56.407Z,17.70
2018-05-27T03:50:24.273Z,17.60
2018-05-27T03:52:52.039Z,17.60
2018-05-27T03:55:19.705Z,17.70
2018-05-27T03:57:47.388Z,17.80
2018-05-27T04:00:15.024Z,17.90
2018-05-27T04:02:42.673Z,18.10
2018-05-27T04:05:24.174Z,18.10
2018-05-27T04:08:03.819Z,18.10
2018-05-27T04:10:31.583Z,18.10
2018-05-27T04:12:59.228Z,18.10
2018-05-27T04:15:27.011Z,18.10
2018-05-27T04:17:54.775Z,18.20
2018-05-27T04:20:22.406Z,18.20
2018-05-27T04:22:50.202Z,18.50
2018-05-27T04:25:17.902Z,18.70
2018-05-27T04:27:46.448Z,18.90
2018-05-27T04:30:14.132Z,18.90
2018-05-27T04:32:41.759Z,19.00
2018-05-27T04:35:09.538Z,19.10
2018-05-27T04:37:37.406Z,19.30
2018-05-27T04:40:05.170Z,19.40
2018-05-27T04:42:32.935Z,19.50
2018-05-27T04:45:00.596Z,19.50
2018-05-27T04:47:28.464Z,19.40
2018-05-27T04:49:56.128Z,19.00
2018-05-27T04:52:23.748Z,19.00
2018-05-27T04:54:52.168Z,18.90
2018-05-27T04:57:19.795Z,18.90
2018-05-27T04:59:47.431Z,18.90
2018-05-27T05:02:15.902Z,19.10
2018-05-27T05:04:43.530Z,19.10
2018-05-27T05:07:11.180Z,19.10
2018-05-27T05:09:38.801Z,19.20
2018-05-27T05:12:07.245Z,19.00
2018-05-27T05:14:35.016Z,19.00
2018-05-27T05:17:02.771Z,19.00
2018-05-27T05:19:30.441Z,19.10
2018-05-27T05:21:58.134Z,19.30
2018-05-27T05:24:26.680Z,19.60
2018-05-27T05:26:54.298Z,19.60
2018-05-27T05:29:21.929Z,19.50
2018-05-27T05:31:49.770Z,19.60
2018-05-27T05:34:17.395Z,19.50
2018-05-27T05:36:45.040Z,19.60
2018-05-27T05:39:13.575Z,19.50
2018-05-27T05:41:41.439Z,19.50
2018-05-27T05:44:09.206Z,19.70
2018-05-27T05:46:36.845Z,19.90
2018-05-27T05:49:04.736Z,20.10
2018-05-27T05:51:32.500Z,20.00
2018-05-27T05:54:00.163Z,20.00
2018-05-27T05:56:27.800Z,20.00
2018-05-27T05:58:55.423Z,20.00
2018-05-27T06:01:23.178Z,20.00
2018-05-27T06:03:50.807Z,19.90
2018-05-27T06:06:18.433Z,19.90
2018-05-27T06:08:46.854Z,20.30
2018-05-27T06:11:14.542Z,20.30
2018-05-27T06:13:42.311Z,20.40
2018-05-27T06:16:09.924Z,20.40
2018-05-27T06:18:37.537Z,20.30
2018-05-27T06:21:05.370Z,20.20
2018-05-27T06:23:33.136Z,20.20
2018-05-27T06:26:00.801Z,20.20
2018-05-27T06:28:28.462Z,20.10
2018-05-27T06:30:56.079Z,20.10
2018-05-27T06:33:23.753Z,20.00
2018-05-27T06:35:51.385Z,20.00
2018-05-27T06:38:20.511Z,20.00
2018-05-27T06:40:48.162Z,20.00
2018-05-27T06:43:16.554Z,20.00
2018-05-27T06:45:44.204Z,19.90
2018-05-27T06:48:12.653Z,19.90
2018-05-27T06:50:40.299Z,19.90
2018-05-27T06:53:08.059Z,19.80
2018-05-27T06:55:35.919Z,19.80
2018-05-27T06:58:03.538Z,19.80
2018-05-27T07:00:31.918Z,19.70
2018-05-27T07:03:00.447Z,19.60
2018-05-27T07:05:28.137Z,19.60
2018-05-27T07:07:57.311Z,19.60
2018-05-27T07:10:24.992Z,19.60
2018-05-27T07:12:52.623Z,19.60
2018-05-27T07:15:20.396Z,19.70
2018-05-27T07:17:48.160Z,19.60
2018-05-27T07:20:15.856Z,19.60
2018-05-27T07:22:43.645Z,19.60
2018-05-27T07:25:11.553Z,19.50
2018-05-27T07:27:39.180Z,19.60
2018-05-27T07:30:07.700Z,19.60
2018-05-27T07:32:35.370Z,19.50
2018-05-27T07:35:03.004Z,19.70
2018-05-27T07:37:30.942Z,19.70
2018-05-27T07:39:59.373Z,19.80
2018-05-27T07:42:27.090Z,19.80
2018-05-27T07:44:55.005Z,19.70
2018-05-27T07:47:22.666Z,19.80
2018-05-27T07:49:50.307Z,19.80
2018-05-27T07:52:17.927Z,19.70
2018-05-27T07:54:47.087Z,19.70
2018-05-27T07:57:14.855Z,19.70
2018-05-27T07:59:42.473Z,19.80
2018-05-27T08:02:10.897Z,19.80
2018-05-27T08:04:38.622Z,19.80
2018-05-27T08:07:07.808Z,19.70
2018-05-27T08:09:35.624Z,19.70
2018-05-27T08:12:03.278Z,19.60
2018-05-27T08:14:30.892Z,19.70
2018-05-27T08:16:59.322Z,19.30
2018-05-27T08:19:27.091Z,19.20
2018-05-27T08:21:54.968Z,19.10
2018-05-27T08:24:22.628Z,19.20
2018-05-27T08:26:50.451Z,19.30
2018-05-27T08:29:18.075Z,19.30
2018-05-27T08:31:46.019Z,19.60
2018-05-27T08:34:13.708Z,19.70
2018-05-27T08:36:41.373Z,19.80
2018-05-27T08:39:09.210Z,19.80
2018-05-27T08:41:36.880Z,19.70
2018-05-27T08:44:04.845Z,19.70
2018-05-27T08:46:32.630Z,19.80
2018-05-27T08:49:00.272Z,19.90
2018-05-27T08:51:31.118Z,19.90
2018-05-27T08:53:58.813Z,20.00
2018-05-27T08:56:26.577Z,20.10
2018-05-27T08:58:55.010Z,20.00
2018-05-27T09:01:25.859Z,19.90
2018-05-27T09:03:53.555Z,20.10
2018-05-27T09:06:21.960Z,20.20
2018-05-27T09:08:49.627Z,20.20
2018-05-27T09:11:17.320Z,20.30
2018-05-27T09:13:45.187Z,20.40
2018-05-27T09:16:12.804Z,20.40
2018-05-27T09:18:41.253Z,20.50
2018-05-27T09:21:09.023Z,20.50
2018-05-27T09:23:36.646Z,20.60
2018-05-27T09:26:04.527Z,20.70
2018-05-27T09:28:32.287Z,20.80
2018-05-27T09:31:00.053Z,20.90
2018-05-27T09:33:27.734Z,20.90
2018-05-27T09:35:55.417Z,21.00
2018-05-27T09:38:23.057Z,21.00
2018-05-27T09:40:50.721Z,21.10
2018-05-27T09:43:18.372Z,21.10
2018-05-27T09:45:45.978Z,21.20
2018-05-27T09:48:14.508Z,21.40
2018-05-27T09:50:42.200Z,21.40
2018-05-27T09:53:09.848Z,21.50
2018-05-27T09:55:37.700Z,21.50
2018-05-27T09:58:05.380Z,21.70
2018-05-27T10:00:33.000Z,22.00
2018-05-27T10:03:00.666Z,22.10
2018-05-27T10:05:28.279Z,22.10
2018-05-27T10:07:56.082Z,22.20
2018-05-27T10:10:23.804Z,22.50
2018-05-27T10:12:51.476Z,22.60
2018-05-27T10:15:19.233Z,22.60
2018-05-27T10:17:46.844Z,22.70
2018-05-27T10:20:14.464Z,22.90
2018-05-27T10:22:42.104Z,23.00
2018-05-27T10:25:09.765Z,23.00
2018-05-27T10:27:37.619Z,23.00
2018-05-27T10:30:05.282Z,23.10
2018-05-27T10:32:32.899Z,23.20
2018-05-27T10:35:01.426Z,23.20
2018-05-27T10:37:29.063Z,23.20
2018-05-27T10:39:56.852Z,23.30
2018-05-27T10:42:24.618Z,23.40
2018-05-27T10:44:52.244Z,23.50
2018-05-27T10:47:19.929Z,23.60
2018-05-27T10:49:47.706Z,23.80
2018-05-27T10:52:15.357Z,23.90
2018-05-27T10:54:43.440Z,24.00
2018-05-27T10:57:11.085Z,24.00
2018-05-27T10:59:38.700Z,24.00
2018-05-27T11:02:06.461Z,24.00
2018-05-27T11:04:34.195Z,24.10
2018-05-27T11:07:02.062Z,24.10
2018-05-27T11:09:29.930Z,24.30
2018-05-27T11:11:57.557Z,24.40
2018-05-27T11:14:25.356Z,24.30
2018-05-27T11:16:53.213Z,24.30
2018-05-27T11:19:21.017Z,24.50
2018-05-27T11:21:48.640Z,24.50
2018-05-27T11:24:16.262Z,24.60
2018-05-27T11:26:44.792Z,24.70
2018-05-27T11:29:12.557Z,24.70
2018-05-27T11:31:40.251Z,24.70
2018-05-27T11:34:07.889Z,24.80
2018-05-27T11:36:35.544Z,24.80
2018-05-27T11:39:03.208Z,24.90
2018-05-27T11:41:30.890Z,25.10
2018-05-27T11:43:58.550Z,25.30
2018-05-27T11:46:26.222Z,25.20
2018-05-27T11:48:53.832Z,25.00
2018-05-27T11:51:21.546Z,25.00
2018-05-27T11:53:49.215Z,25.30
2018-05-27T11:56:16.832Z,25.30
2018-05-27T11:58:44.813Z,25.50
2018-05-27T12:01:12.435Z,25.40
2018-05-27T12:03:40.116Z,25.20
2018-05-27T12:06:16.352Z,25.20
2018-05-27T12:08:45.338Z,25.40
2018-05-27T12:11:13.803Z,25.40
2018-05-27T12:13:41.483Z,25.40
2018-05-27T12:16:09.875Z,25.60
2018-05-27T12:18:38.506Z,25.70
2018-05-27T12:21:06.269Z,25.70
2018-05-27T12:23:34.032Z,25.90
2018-05-27T12:26:01.832Z,25.90
2018-05-27T12:28:29.666Z,26.00
2018-05-27T12:30:57.312Z,26.10
2018-05-27T12:33:25.034Z,26.00
2018-05-27T12:35:53.485Z,25.80
2018-05-27T12:38:21.096Z,25.80
2018-05-27T12:40:48.707Z,25.80
2018-05-27T12:43:16.464Z,25.80
2018-05-27T12:45:44.227Z,25.90
2018-05-27T12:48:12.193Z,26.10
2018-05-27T12:50:39.958Z,26.00
2018-05-27T12:53:07.569Z,26.10
2018-05-27T12:55:36.004Z,26.10
2018-05-27T12:58:03.870Z,26.10
2018-05-27T13:00:31.553Z,26.00
2018-05-27T13:02:59.156Z,25.90
2018-05-27T13:05:26.801Z,26.00
2018-05-27T13:07:55.241Z,25.90
2018-05-27T13:10:22.999Z,25.90
2018-05-27T13:12:50.765Z,26.00
2018-05-27T13:15:18.443Z,25.90
2018-05-27T13:17:46.124Z,25.90
2018-05-27T13:20:14.673Z,26.00
2018-05-27T13:22:42.538Z,25.90
2018-05-27T13:25:10.200Z,25.90
2018-05-27T13:27:38.071Z,26.00
2018-05-27T13:30:05.787Z,26.00
2018-05-27T13:32:33.457Z,25.90
2018-05-27T13:35:02.022Z,25.80
2018-05-27T13:37:31.410Z,25.90
2018-05-27T13:40:00.067Z,26.00
2018-05-27T13:42:27.747Z,26.00
2018-05-27T13:44:55.549Z,26.00
2018-05-27T13:47:23.378Z,26.10
2018-05-27T13:49:51.015Z,25.90
2018-05-27T13:52:18.660Z,26.10
2018-05-27T13:54:46.382Z,26.20
2018-05-27T13:57:14.046Z,26.20
2018-05-27T13:59:41.693Z,26.20
2018-05-27T14:02:09.309Z,26.10
2018-05-27T14:04:37.033Z,26.10
2018-05-27T14:07:04.701Z,26.30
2018-05-27T14:09:33.133Z,26.30
2018-05-27T14:12:00.913Z,26.30
2018-05-27T14:14:28.674Z,26.30
2018-05-27T14:16:56.437Z,26.30
2018-05-27T14:19:24.084Z,26.40
2018-05-27T14:21:51.763Z,26.30
2018-05-27T14:24:19.554Z,26.30
2018-05-27T14:26:47.210Z,26.20
2018-05-27T14:29:15.094Z,26.20
2018-05-27T14:31:43.669Z,26.10
2018-05-27T14:34:11.442Z,26.10
2018-05-27T14:36:39.991Z,26.10
2018-05-27T14:39:07.756Z,26.10
2018-05-27T14:41:35.624Z,26.10
2018-05-27T14:44:04.311Z,26.10
2018-05-27T14:46:31.963Z,26.20
2018-05-27T14:48:59.622Z,26.20
2018-05-27T14:51:27.323Z,26.20
2018-05-27T14:53:54.959Z,26.20
2018-05-27T14:56:22.727Z,26.20
2018-05-27T14:58:50.591Z,26.20
2018-05-27T15:01:18.203Z,26.20
2018-05-27T15:03:46.635Z,26.20
2018-05-27T15:06:14.389Z,26.20
2018-05-27T15:08:42.000Z,26.20
2018-05-27T15:11:10.539Z,26.20
2018-05-27T15:13:38.406Z,26.20
2018-05-27T15:16:06.085Z,26.20
2018-05-27T15:18:33.972Z,26.30
2018-05-27T15:21:02.522Z,26.10
2018-05-27T15:23:30.154Z,26.10
2018-05-27T15:25:57.787Z,26.10
2018-05-27T15:28:26.222Z,26.10
2018-05-27T15:30:53.901Z,26.10
2018-05-27T15:33:21.688Z,26.10
2018-05-27T15:35:50.068Z,26.10
2018-05-27T15:38:18.538Z,26.10
2018-05-27T15:40:46.152Z,26.10
2018-05-27T15:43:13.933Z,26.10
2018-05-27T15:45:42.624Z,26.00
2018-05-27T15:48:10.937Z,26.00
2018-05-27T15:50:40.315Z,25.90
2018-05-27T15:53:09.232Z,25.90
2018-05-27T15:55:38.908Z,25.80
2018-05-27T15:58:10.070Z,25.80
2018-05-27T16:00:37.968Z,25.70
2018-05-27T16:03:06.608Z,25.60
2018-05-27T16:05:34.583Z,25.60
2018-05-27T16:08:02.368Z,25.50
2018-05-27T16:10:30.181Z,25.40
2018-05-27T16:12:58.201Z,25.40
2018-05-27T16:15:25.949Z,25.30
2018-05-27T16:17:53.751Z,25.30
2018-05-27T16:20:22.436Z,25.20
2018-05-27T16:22:50.367Z,25.20
2018-05-27T16:25:19.074Z,25.20
2018-05-27T16:27:46.854Z,25.20
2018-05-27T16:30:15.602Z,25.20
2018-05-27T16:32:44.805Z,25.10
2018-05-27T16:35:12.604Z,25.10
2018-05-27T16:37:42.587Z,25.10
2018-05-27T16:40:12.535Z,25.10
2018-05-27T16:42:40.372Z,25.10
2018-05-27T16:45:08.163Z,25.00
2018-05-27T16:47:36.796Z,25.00
2018-05-27T16:50:04.582Z,25.00
2018-05-27T16:52:32.210Z,25.00
2018-05-27T16:55:00.419Z,25.00
2018-05-27T16:57:30.037Z,25.00
2018-05-27T16:59:57.716Z,24.90
2018-05-27T17:02:25.379Z,25.00
2018-05-27T17:04:52.988Z,25.00
2018-05-27T17:07:20.701Z,24.90
2018-05-27T17:09:48.365Z,24.90
2018-05-27T17:12:16.107Z,24.90
2018-05-27T17:14:43.794Z,24.90
2018-05-27T17:17:13.071Z,24.90
2018-05-27T17:19:40.701Z,24.90
2018-05-27T17:22:08.596Z,24.90
2018-05-27T17:24:36.389Z,24.90
2018-05-27T17:27:04.154Z,24.90
2018-05-27T17:29:31.905Z,24.90
2018-05-27T17:31:59.571Z,24.90
2018-05-27T17:34:27.317Z,24.90
2018-05-27T17:36:55.082Z,24.90
2018-05-27T17:39:22.877Z,24.90
2018-05-27T17:41:51.420Z,25.00
2018-05-27T17:44:19.060Z,25.00
2018-05-27T17:46:46.775Z,25.00
2018-05-27T17:49:14.397Z,25.00
2018-05-27T17:51:42.034Z,25.00
2018-05-27T17:54:10.563Z,25.00
2018-05-27T17:56:38.330Z,24.90
2018-05-27T17:59:05.957Z,24.90
2018-05-27T18:01:33.611Z,25.00
2018-05-27T18:04:02.138Z,24.90
2018-05-27T18:06:29.779Z,24.90
2018-05-27T18:08:57.745Z,24.90
2018-05-27T18:11:25.479Z,24.80
2018-05-27T18:13:53.866Z,24.80
2018-05-27T18:16:22.314Z,24.70
2018-05-27T18:18:50.060Z,24.70
2018-05-27T18:21:17.849Z,24.70
2018-05-27T18:23:45.711Z,24.60
2018-05-27T18:26:13.761Z,24.60
2018-05-27T18:28:41.610Z,24.60
2018-05-27T18:31:12.356Z,24.60
2018-05-27T18:33:41.942Z,24.50
2018-05-27T18:36:09.767Z,24.50
2018-05-27T18:38:37.539Z,24.50
2018-05-27T18:41:06.088Z,24.40
2018-05-27T18:43:33.765Z,24.40
2018-05-27T18:46:02.372Z,24.40
2018-05-27T18:48:30.930Z,24.30
2018-05-27T18:51:00.318Z,24.30
2018-05-27T18:53:27.991Z,24.30
2018-05-27T18:55:55.622Z,24.30
2018-05-27T18:58:23.336Z,24.30
2018-05-27T19:00:51.018Z,24.20
2018-05-27T19:03:20.675Z,24.20
2018-05-27T19:05:48.316Z,24.20
2018-05-27T19:08:16.035Z,24.20
2018-05-27T19:10:44.587Z,24.10
2018-05-27T19:13:12.248Z,24.10
2018-05-27T19:15:39.852Z,24.10
2018-05-27T19:18:08.388Z,24.10
2018-05-27T19:20:36.035Z,24.00
2018-05-27T19:23:03.817Z,24.00
2018-05-27T19:25:31.614Z,24.00
2018-05-27T19:27:59.237Z,24.00
2018-05-27T19:30:26.848Z,24.00
2018-05-27T19:32:55.269Z,23.90
2018-05-27T19:35:22.970Z,23.90
2018-05-27T19:37:50.730Z,23.90
2018-05-27T19:40:18.402Z,23.90
2018-05-27T19:42:46.047Z,23.90
2018-05-27T19:45:13.663Z,23.90
2018-05-27T19:47:42.209Z,23.80
2018-05-27T19:50:09.816Z,23.80
2018-05-27T19:52:37.506Z,23.70
2018-05-27T19:55:05.151Z,23.70
2018-05-27T19:57:32.857Z,23.70
2018-05-27T20:00:00.523Z,23.70
2018-05-27T20:02:28.155Z,23.60
2018-05-27T20:04:55.768Z,23.60
2018-05-27T20:07:24.403Z,23.50
2018-05-27T20:09:52.075Z,23.50
2018-05-27T20:12:19.705Z,23.50
2018-05-27T20:14:47.369Z,23.40
2018-05-27T20:17:15.091Z,23.40
2018-05-27T20:19:43.508Z,23.30
2018-05-27T20:22:11.228Z,23.30
2018-05-27T20:24:38.964Z,23.30
2018-05-27T20:27:06.869Z,23.20
2018-05-27T20:29:35.477Z,23.20
2018-05-27T20:32:03.143Z,23.20
2018-05-27T20:34:30.864Z,23.10
2018-05-27T20:36:58.529Z,23.20
2018-05-27T20:39:26.287Z,23.20
2018-05-27T20:41:54.055Z,23.20
2018-05-27T20:44:21.679Z,23.10
2018-05-27T20:46:49.460Z,23.10
2018-05-27T20:49:17.109Z,23.10
2018-05-27T20:51:44.886Z,23.10
2018-05-27T20:54:12.756Z,23.00
2018-05-27T20:56:40.457Z,23.00
2018-05-27T20:59:08.295Z,23.00
2018-05-27T21:01:36.082Z,23.00
2018-05-27T21:04:05.246Z,22.90
2018-05-27T21:06:33.021Z,22.90
2018-05-27T21:09:00.683Z,22.90
2018-05-27T21:11:28.303Z,22.90
2018-05-27T21:13:56.106Z,22.90
2018-05-27T21:16:23.899Z,22.80
2018-05-27T21:18:51.734Z,22.80
2018-05-27T21:21:20.165Z,22.70
2018-05-27T21:23:48.600Z,22.70
2018-05-27T21:26:16.361Z,22.70
2018-05-27T21:28:44.025Z,22.70
2018-05-27T21:31:11.688Z,22.60
2018-05-27T21:33:39.300Z,22.60
2018-05-27T21:36:07.725Z,22.50
2018-05-27T21:38:35.591Z,22.50
2018-05-27T21:41:03.227Z,22.50
2018-05-27T21:43:30.832Z,22.40
2018-05-27T21:45:58.578Z,22.40
2018-05-27T21:48:26.268Z,22.30
2018-05-27T21:50:54.006Z,22.30
2018-05-27T21:53:21.672Z,22.20
2018-05-27T21:55:50.972Z,22.20
2018-05-27T21:58:18.736Z,22.20
2018-05-27T22:00:46.395Z,22.20
2018-05-27T22:03:13.999Z,22.10
2018-05-27T22:05:42.472Z,22.00
2018-05-27T22:08:10.138Z,22.00
2018-05-27T22:10:37.765Z,22.00
2018-05-27T22:13:05.403Z,22.00
2018-05-27T22:15:33.122Z,22.00
2018-05-27T22:18:00.955Z,21.90
2018-05-27T22:20:28.823Z,21.90
2018-05-27T22:22:56.449Z,21.80
2018-05-27T22:25:24.095Z,21.80
2018-05-27T22:27:53.285Z,21.70
2018-05-27T22:30:21.116Z,21.70
2018-05-27T22:32:48.876Z,21.60
2018-05-27T22:35:16.640Z,21.50
2018-05-27T22:37:44.409Z,21.50
2018-05-27T22:40:12.377Z,21.40
2018-05-27T22:42:40.142Z,21.40
2018-05-27T22:45:07.907Z,21.40
2018-05-27T22:47:35.705Z,21.30
2018-05-27T22:50:03.539Z,21.30
2018-05-27T22:52:31.164Z,21.30
2018-05-27T22:54:58.777Z,21.30
2018-05-27T22:57:26.437Z,21.30
2018-05-27T22:59:54.189Z,21.30
2018-05-27T23:02:21.843Z,21.20
2018-05-27T23:04:49.468Z,21.20
2018-05-27T23:07:18.095Z,21.00
2018-05-27T23:09:45.789Z,21.00
2018-05-27T23:12:13.448Z,21.00
2018-05-27T23:14:41.087Z,20.90
2018-05-27T23:17:08.734Z,20.80
2018-05-27T23:19:36.379Z,20.80
2018-05-27T23:22:04.170Z,20.80
2018-05-27T23:24:31.942Z,20.80
2018-05-27T23:26:59.629Z,20.80
2018-05-27T23:29:27.257Z,20.80
2018-05-27T23:31:54.925Z,20.70
2018-05-27T23:34:22.727Z,20.70
2018-05-27T23:36:51.169Z,20.60
2018-05-27T23:39:18.831Z,20.60
2018-05-27T23:41:46.509Z,20.60
2018-05-27T23:44:14.258Z,20.60
2018-05-27T23:46:41.897Z,20.60
2018-05-27T23:49:09.555Z,20.60
2018-05-27T23:51:37.213Z,20.50
2018-05-27T23:54:04.856Z,20.50
2018-05-27T23:56:33.263Z,20.40
2018-05-27T23:59:00.908Z,20.40
